createdAt,value
2017-11-16T00:01:58.851Z,45.17
2017-11-16T00:04:26.350Z,44.10
2017-11-16T00:06:53.881Z,41.13
2017-11-16T00:09:21.831Z,38.03
2017-11-16T00:11:49.398Z,45.27
2017-11-16T00:14:17.358Z,40.23
2017-11-16T00:16:44.892Z,39.30
2017-11-16T00:19:13.325Z,39.17
2017-11-16T00:21:40.828Z,38.47
2017-11-16T00:24:09.106Z,40.00
2017-11-16T00:26:37.730Z,42.40
2017-11-16T00:29:05.247Z,39.93
2017-11-16T00:31:33.529Z,36.93
2017-11-16T00:34:01.046Z,33.03
2017-11-16T00:36:29.538Z,37.60
2017-11-16T00:38:57.902Z,40.90
2017-11-16T00:41:25.437Z,37.27
2017-11-16T00:43:53.535Z,36.30
2017-11-16T00:46:21.265Z,40.53
2017-11-16T00:48:49.662Z,39.67
2017-11-16T00:51:17.212Z,35.33
2017-11-16T00:53:44.794Z,42.00
2017-11-16T00:56:12.381Z,35.40
2017-11-16T00:58:41.424Z,48.67
2017-11-16T01:01:09.085Z,36.30
2017-11-16T01:03:37.360Z,32.40
2017-11-16T01:06:04.926Z,36.27
2017-11-16T01:08:33.310Z,37.23
2017-11-16T01:11:02.009Z,37.90
2017-11-16T01:13:30.244Z,40.27
2017-11-16T01:15:58.674Z,36.20
2017-11-16T01:18:27.986Z,36.93
2017-11-16T01:20:55.530Z,37.67
2017-11-16T01:23:23.124Z,35.53
2017-11-16T01:25:51.479Z,35.77
2017-11-16T01:28:19.004Z,40.80
2017-11-16T01:30:46.518Z,40.83
2017-11-16T01:33:14.119Z,36.63
2017-11-16T01:35:43.461Z,34.43
2017-11-16T01:38:11.013Z,46.63
2017-11-16T01:40:39.217Z,61.80
2017-11-16T01:43:07.529Z,53.97
2017-11-16T01:45:35.077Z,43.17
2017-11-16T01:48:03.359Z,40.57
2017-11-16T01:50:30.912Z,45.57
2017-11-16T01:52:58.436Z,44.40
2017-11-16T01:55:26.738Z,44.50
2017-11-16T01:57:54.573Z,48.20
2017-11-16T02:00:22.983Z,48.70
2017-11-16T02:02:54.509Z,50.93
2017-11-16T02:05:22.061Z,49.30
2017-11-16T02:07:49.566Z,38.37
2017-11-16T02:10:17.610Z,47.53
2017-11-16T02:12:46.113Z,39.60
2017-11-16T02:15:13.617Z,41.57
2017-11-16T02:17:41.217Z,43.67
2017-11-16T02:20:09.642Z,37.77
2017-11-16T02:22:37.935Z,42.73
2017-11-16T02:25:06.529Z,37.30
2017-11-16T02:27:35.308Z,38.70
2017-11-16T02:30:02.817Z,38.30
2017-11-16T02:32:30.408Z,44.77
2017-11-16T02:34:57.959Z,44.10
2017-11-16T02:37:25.525Z,44.53
2017-11-16T02:39:53.110Z,46.40
2017-11-16T02:42:20.780Z,45.57
2017-11-16T02:44:48.369Z,47.37
2017-11-16T02:47:16.847Z,54.83
2017-11-16T02:49:45.114Z,49.17
2017-11-16T02:52:13.366Z,48.47
2017-11-16T02:54:41.694Z,42.77
2017-11-16T02:57:10.024Z,47.60
2017-11-16T02:59:37.965Z,45.00
2017-11-16T03:02:06.069Z,46.07
2017-11-16T03:04:34.422Z,47.03
2017-11-16T03:07:02.022Z,44.47
2017-11-16T03:09:29.543Z,49.27
2017-11-16T03:11:57.676Z,40.57
2017-11-16T03:14:25.352Z,51.27
2017-11-16T03:16:52.886Z,41.20
2017-11-16T03:19:21.927Z,45.53
2017-11-16T03:21:50.144Z,50.90
2017-11-16T03:24:17.681Z,42.70
2017-11-16T03:26:45.209Z,39.50
2017-11-16T03:29:12.794Z,46.43
2017-11-16T03:31:40.353Z,50.87
2017-11-16T03:34:08.775Z,53.23
2017-11-16T03:36:36.333Z,48.70
2017-11-16T03:39:04.668Z,45.03
2017-11-16T03:41:32.241Z,54.67
2017-11-16T03:43:59.822Z,55.73
2017-11-16T03:46:28.335Z,75.27
2017-11-16T03:48:55.861Z,47.30
2017-11-16T03:51:23.373Z,54.07
2017-11-16T03:53:50.878Z,45.67
2017-11-16T03:56:19.233Z,53.43
2017-11-16T03:58:47.583Z,44.33
2017-11-16T04:01:15.101Z,48.83
2017-11-16T04:03:44.034Z,51.80
2017-11-16T04:06:11.577Z,40.83
2017-11-16T04:08:39.810Z,46.17
2017-11-16T04:11:08.224Z,46.37
2017-11-16T04:13:35.768Z,37.97
2017-11-16T04:16:04.075Z,45.17
2017-11-16T04:18:31.849Z,41.30
2017-11-16T04:21:00.263Z,40.57
2017-11-16T04:23:28.585Z,45.27
2017-11-16T04:25:56.131Z,40.37
2017-11-16T04:28:24.414Z,55.57
2017-11-16T04:30:52.111Z,44.10
2017-11-16T04:33:19.657Z,46.27
2017-11-16T04:35:47.180Z,43.33
2017-11-16T04:38:16.645Z,42.77
2017-11-16T04:40:44.250Z,50.27
2017-11-16T04:43:12.520Z,42.77
2017-11-16T04:45:40.067Z,41.90
2017-11-16T04:48:07.628Z,51.17
2017-11-16T04:50:35.179Z,53.87
2017-11-16T04:53:02.795Z,53.63
2017-11-16T04:55:30.788Z,51.23
2017-11-16T04:57:59.218Z,53.83
2017-11-16T05:00:28.306Z,64.80
2017-11-16T05:02:56.630Z,60.03
2017-11-16T05:05:24.179Z,59.70
2017-11-16T05:07:52.455Z,59.97
2017-11-16T05:10:21.139Z,57.93
2017-11-16T05:12:50.528Z,56.80
2017-11-16T05:15:18.074Z,62.37
2017-11-16T05:17:46.339Z,54.83
2017-11-16T05:20:13.877Z,58.00
2017-11-16T05:22:41.430Z,67.33
2017-11-16T05:25:09.016Z,57.03
2017-11-16T05:27:37.240Z,60.30
2017-11-16T05:30:06.652Z,62.17
2017-11-16T05:32:35.564Z,65.13
2017-11-16T05:35:03.135Z,67.30
2017-11-16T05:37:30.656Z,71.33
2017-11-16T05:39:59.971Z,78.30
2017-11-16T05:42:28.293Z,77.03
2017-11-16T05:44:55.817Z,73.80
2017-11-16T05:47:23.427Z,90.37
2017-11-16T05:49:51.661Z,76.37
2017-11-16T05:52:19.175Z,81.10
2017-11-16T05:54:46.693Z,98.57
2017-11-16T05:57:14.960Z,91.13
2017-11-16T05:59:42.503Z,91.53
2017-11-16T06:02:10.052Z,93.33
2017-11-16T06:04:37.545Z,102.03
2017-11-16T06:07:05.170Z,107.97
2017-11-16T06:09:32.679Z,120.10
2017-11-16T06:12:00.226Z,170.03
2017-11-16T06:14:28.662Z,156.03
2017-11-16T06:16:57.222Z,117.03
2017-11-16T06:19:25.281Z,101.63
2017-11-16T06:21:56.838Z,84.00
2017-11-16T06:24:25.626Z,94.67
2017-11-16T06:26:53.149Z,92.13
2017-11-16T06:29:22.779Z,92.50
2017-11-16T06:31:50.506Z,91.53
2017-11-16T06:34:18.073Z,90.57
2017-11-16T06:36:45.615Z,80.53
2017-11-16T06:39:13.118Z,83.37
2017-11-16T06:41:40.665Z,87.80
2017-11-16T06:44:08.183Z,89.03
2017-11-16T06:46:35.710Z,83.03
2017-11-16T06:49:03.990Z,86.03
2017-11-16T06:51:32.270Z,86.37
2017-11-16T06:53:59.831Z,75.57
2017-11-16T06:56:28.158Z,105.60
2017-11-16T06:58:55.640Z,92.03
2017-11-16T07:01:24.724Z,96.67
2017-11-16T07:03:52.268Z,89.67
2017-11-16T07:06:19.767Z,99.03
2017-11-16T07:08:47.329Z,82.30
2017-11-16T07:11:15.660Z,104.90
2017-11-16T07:13:43.225Z,92.10
2017-11-16T07:16:10.741Z,94.20
2017-11-16T07:18:38.261Z,93.77
2017-11-16T07:21:05.775Z,83.70
2017-11-16T07:23:33.322Z,92.50
2017-11-16T07:26:00.999Z,107.23
2017-11-16T07:28:28.517Z,83.43
2017-11-16T07:30:56.845Z,82.77
2017-11-16T07:33:24.402Z,91.13
2017-11-16T07:35:51.930Z,90.07
2017-11-16T07:38:19.460Z,94.67
2017-11-16T07:40:49.873Z,72.57
2017-11-16T07:43:17.656Z,90.80
2017-11-16T07:45:45.172Z,87.70
2017-11-16T07:48:12.689Z,85.33
2017-11-16T07:50:40.987Z,73.00
2017-11-16T07:53:10.709Z,87.50
2017-11-16T07:55:38.874Z,92.30
2017-11-16T07:58:07.443Z,98.77
2017-11-16T08:00:34.988Z,98.37
2017-11-16T08:03:03.519Z,91.00
2017-11-16T08:05:31.040Z,113.93
2017-11-16T08:08:00.120Z,93.70
2017-11-16T08:10:28.464Z,87.50
2017-11-16T08:12:55.986Z,98.03
2017-11-16T08:15:23.517Z,81.97
2017-11-16T08:17:51.557Z,75.43
2017-11-16T08:20:19.729Z,85.20
2017-11-16T08:22:47.845Z,61.73
2017-11-16T08:25:15.383Z,72.20
2017-11-16T08:27:43.265Z,70.80
2017-11-16T08:30:10.776Z,71.87
2017-11-16T08:32:38.289Z,77.33
2017-11-16T08:35:07.157Z,75.77
2017-11-16T08:37:34.677Z,81.63
2017-11-16T08:40:02.208Z,82.70
2017-11-16T08:42:29.800Z,77.23
2017-11-16T08:44:58.195Z,74.83
2017-11-16T08:47:25.724Z,82.60
2017-11-16T08:49:53.265Z,75.27
2017-11-16T08:52:20.843Z,69.07
2017-11-16T08:54:48.373Z,71.53
2017-11-16T08:57:15.912Z,73.43
2017-11-16T08:59:43.457Z,69.60
2017-11-16T09:02:11.055Z,69.57
2017-11-16T09:04:39.935Z,69.83
2017-11-16T09:07:07.852Z,81.87
2017-11-16T09:09:35.403Z,74.80
2017-11-16T09:12:02.961Z,70.43
2017-11-16T09:14:30.590Z,77.07
2017-11-16T09:16:58.866Z,82.73
2017-11-16T09:19:27.204Z,72.03
2017-11-16T09:21:54.765Z,73.27
2017-11-16T09:24:22.399Z,86.13
2017-11-16T09:26:49.962Z,81.23
2017-11-16T09:29:17.726Z,83.70
2017-11-16T09:31:46.315Z,76.00
2017-11-16T09:34:14.231Z,77.13
2017-11-16T09:42:25.799Z,76.73
2017-11-16T09:44:54.075Z,73.87
2017-11-16T09:47:22.241Z,71.00
2017-11-16T09:49:49.795Z,72.90
2017-11-16T09:52:17.390Z,67.80
2017-11-16T09:54:45.799Z,73.30
2017-11-16T09:57:13.321Z,67.67
2017-11-16T09:59:40.875Z,76.70
2017-11-16T10:02:08.523Z,70.47
2017-11-16T10:04:36.635Z,69.53
2017-11-16T10:07:04.846Z,72.67
2017-11-16T10:09:33.708Z,77.53
2017-11-16T10:12:01.248Z,76.40
2017-11-16T10:14:28.977Z,80.23
2017-11-16T10:16:56.516Z,64.90
2017-11-16T10:19:25.339Z,76.43
2017-11-16T10:21:53.689Z,67.17
2017-11-16T10:24:22.228Z,68.37
2017-11-16T10:26:49.903Z,85.03
2017-11-16T10:29:17.462Z,64.00
2017-11-16T10:31:45.082Z,64.27
2017-11-16T10:34:13.593Z,65.40
2017-11-16T10:36:41.162Z,67.53
2017-11-16T10:39:08.697Z,71.97
2017-11-16T10:41:36.296Z,77.07
2017-11-16T10:44:03.838Z,72.80
2017-11-16T10:46:31.984Z,73.20
2017-11-16T10:48:59.770Z,71.07
2017-11-16T10:51:27.325Z,69.70
2017-11-16T10:53:54.878Z,69.10
2017-11-16T10:56:22.494Z,81.23
2017-11-16T10:58:50.015Z,75.43
2017-11-16T11:01:17.565Z,67.97
2017-11-16T11:03:45.154Z,68.00
2017-11-16T11:06:12.727Z,72.53
2017-11-16T11:08:41.036Z,69.83
2017-11-16T11:11:11.133Z,75.30
2017-11-16T11:13:38.647Z,73.10
2017-11-16T11:16:06.951Z,73.53
2017-11-16T11:18:35.801Z,68.77
2017-11-16T11:21:03.394Z,82.80
2017-11-16T11:23:33.153Z,94.77
2017-11-16T11:26:00.735Z,77.70
2017-11-16T11:28:28.289Z,71.00
2017-11-16T11:33:57.356Z,62.67
2017-11-16T11:36:25.818Z,73.73
2017-11-16T11:38:53.371Z,69.07
2017-11-16T11:41:22.971Z,64.87
2017-11-16T11:43:50.528Z,75.67
2017-11-16T11:46:18.138Z,62.10
2017-11-16T11:48:45.664Z,73.63
2017-11-16T11:51:14.030Z,64.43
2017-11-16T11:53:41.777Z,71.93
2017-11-16T11:56:09.398Z,75.30
2017-11-16T11:58:37.875Z,77.07
2017-11-16T12:01:06.792Z,81.47
2017-11-16T12:03:34.314Z,74.37
2017-11-16T12:06:02.624Z,70.30
2017-11-16T12:08:30.703Z,66.27
2017-11-16T12:10:58.450Z,77.97
2017-11-16T12:13:25.983Z,73.10
2017-11-16T12:15:54.276Z,74.57
2017-11-16T12:18:22.690Z,71.57
2017-11-16T12:20:50.237Z,67.33
2017-11-16T12:23:17.880Z,78.00
2017-11-16T12:25:45.571Z,69.27
2017-11-16T12:28:13.533Z,62.30
2017-11-16T12:30:41.562Z,66.33
2017-11-16T12:33:09.899Z,65.93
2017-11-16T12:35:37.509Z,67.47
2017-11-16T12:38:05.306Z,65.27
2017-11-16T12:40:33.054Z,58.63
2017-11-16T12:43:01.260Z,76.20
2017-11-16T12:45:28.810Z,54.27
2017-11-16T12:47:57.959Z,51.40
2017-11-16T12:50:26.314Z,60.67
2017-11-16T12:52:53.868Z,68.70
2017-11-16T12:55:21.438Z,62.70
2017-11-16T12:57:49.018Z,62.23
2017-11-16T13:00:16.562Z,57.13
2017-11-16T13:02:44.400Z,64.97
2017-11-16T13:05:11.960Z,59.87
2017-11-16T13:07:40.277Z,52.20
2017-11-16T13:10:09.483Z,50.60
2017-11-16T13:12:37.985Z,48.30
2017-11-16T13:15:05.589Z,52.10
2017-11-16T13:17:33.139Z,58.83
2017-11-16T13:20:01.161Z,53.33
2017-11-16T13:22:29.459Z,56.17
2017-11-16T13:24:56.961Z,54.80
2017-11-16T13:27:24.742Z,52.40
2017-11-16T13:29:53.165Z,53.93
2017-11-16T13:32:20.731Z,53.20
2017-11-16T13:34:48.756Z,53.07
2017-11-16T13:37:16.766Z,47.70
2017-11-16T13:39:44.300Z,59.30
2017-11-16T13:42:11.970Z,57.67
2017-11-16T13:44:40.236Z,53.43
2017-11-16T13:47:08.482Z,54.40
2017-11-16T13:49:36.115Z,49.40
2017-11-16T13:52:04.585Z,42.30
2017-11-16T13:54:33.002Z,47.30
2017-11-16T13:57:00.669Z,50.47
2017-11-16T13:59:29.547Z,53.20
2017-11-16T14:01:57.055Z,50.27
2017-11-16T14:04:24.606Z,47.37
2017-11-16T14:06:52.890Z,49.93
2017-11-16T14:09:20.596Z,46.23
2017-11-16T14:11:48.128Z,49.60
2017-11-16T14:14:15.692Z,49.67
2017-11-16T14:16:43.206Z,52.97
2017-11-16T14:19:10.756Z,46.13
2017-11-16T14:21:38.329Z,49.70
2017-11-16T14:24:05.852Z,51.93
2017-11-16T14:26:34.230Z,56.73
2017-11-16T14:29:01.955Z,48.70
2017-11-16T14:31:29.544Z,66.20
2017-11-16T14:33:57.717Z,51.80
2017-11-16T14:36:25.285Z,74.63
2017-11-16T14:38:53.560Z,57.13
2017-11-16T14:41:21.220Z,69.77
2017-11-16T14:43:48.813Z,68.90
2017-11-16T14:46:16.374Z,60.17
2017-11-16T14:48:43.959Z,54.53
2017-11-16T14:51:12.297Z,57.00
2017-11-16T14:53:41.286Z,52.23
2017-11-16T14:56:08.858Z,60.07
2017-11-16T14:58:36.629Z,47.83
2017-11-16T15:01:04.214Z,52.07
2017-11-16T15:03:31.926Z,45.10
2017-11-16T15:05:59.454Z,52.50
2017-11-16T15:08:26.975Z,50.90
2017-11-16T15:10:54.571Z,55.23
2017-11-16T15:13:22.263Z,53.30
2017-11-16T15:15:49.853Z,46.63
2017-11-16T15:18:18.439Z,54.70
2017-11-16T15:20:46.591Z,49.07
2017-11-16T15:23:14.717Z,48.57
2017-11-16T15:25:42.751Z,49.63
2017-11-16T15:28:11.488Z,52.53
2017-11-16T15:30:39.016Z,50.30
2017-11-16T15:33:07.667Z,46.93
2017-11-16T15:35:35.182Z,46.10
2017-11-16T15:38:02.736Z,48.63
2017-11-16T15:40:31.177Z,55.40
2017-11-16T15:43:00.717Z,53.77
2017-11-16T15:45:28.994Z,53.67
2017-11-16T15:47:56.532Z,48.93
2017-11-16T15:50:24.735Z,46.90
2017-11-16T15:52:53.031Z,52.27
2017-11-16T15:55:20.621Z,48.47
2017-11-16T15:57:48.131Z,50.53
2017-11-16T16:00:15.896Z,46.83
2017-11-16T16:02:43.419Z,50.63
2017-11-16T16:05:11.001Z,50.80
2017-11-16T16:07:38.586Z,48.00
2017-11-16T16:10:07.578Z,46.83
2017-11-16T16:12:36.083Z,48.70
2017-11-16T16:15:04.613Z,42.33
2017-11-16T16:17:32.214Z,42.60
2017-11-16T16:19:59.762Z,51.10
2017-11-16T16:22:28.079Z,44.20
2017-11-16T16:24:55.636Z,46.03
2017-11-16T16:27:23.419Z,43.53
2017-11-16T16:29:50.944Z,43.00
2017-11-16T16:32:18.498Z,46.03
2017-11-16T16:34:46.103Z,49.07
2017-11-16T16:37:15.401Z,45.33
2017-11-16T16:39:43.542Z,44.30
2017-11-16T16:42:11.128Z,42.53
2017-11-16T16:44:38.681Z,44.57
2017-11-16T16:47:06.242Z,47.87
2017-11-16T16:49:34.532Z,44.47
2017-11-16T16:52:02.588Z,43.07
2017-11-16T16:54:30.231Z,48.73
2017-11-16T16:56:57.793Z,42.10
2017-11-16T16:59:25.332Z,45.40
2017-11-16T17:01:52.902Z,43.90
2017-11-16T17:04:20.617Z,44.73
2017-11-16T17:06:48.137Z,42.30
2017-11-16T17:09:15.659Z,42.23
2017-11-16T17:11:43.217Z,46.27
2017-11-16T17:14:12.519Z,49.63
2017-11-16T17:16:40.822Z,50.73
2017-11-16T17:19:08.370Z,47.63
2017-11-16T17:21:37.755Z,45.87
2017-11-16T17:24:06.144Z,49.03
2017-11-16T17:26:35.859Z,45.93
2017-11-16T17:29:04.338Z,45.20
2017-11-16T17:31:31.872Z,43.47
2017-11-16T17:34:00.230Z,53.20
2017-11-16T17:36:27.790Z,47.93
2017-11-16T17:38:55.345Z,50.07
2017-11-16T17:41:23.843Z,51.80
2017-11-16T17:43:52.389Z,52.07
2017-11-16T17:46:20.531Z,49.13
2017-11-16T17:48:48.451Z,52.60
2017-11-16T17:51:16.012Z,57.00
2017-11-16T17:53:43.572Z,48.87
2017-11-16T17:56:11.175Z,57.80
2017-11-16T17:58:39.521Z,49.43
2017-11-16T18:01:07.936Z,48.10
2017-11-16T18:03:35.528Z,54.77
2017-11-16T18:06:03.092Z,45.87
2017-11-16T18:08:30.664Z,50.13
2017-11-16T18:10:58.178Z,51.80
2017-11-16T18:13:25.746Z,52.20
2017-11-16T18:15:53.253Z,57.50
2017-11-16T18:18:20.870Z,56.27
2017-11-16T18:20:48.455Z,53.33
2017-11-16T18:23:16.017Z,51.00
2017-11-16T18:25:43.584Z,48.90
2017-11-16T18:28:11.139Z,55.87
2017-11-16T18:30:38.726Z,55.40
2017-11-16T18:33:06.351Z,53.13
2017-11-16T18:35:35.558Z,57.70
2017-11-16T18:38:03.118Z,96.90
2017-11-16T18:40:30.638Z,82.80
2017-11-16T18:43:00.381Z,58.37
2017-11-16T18:45:27.946Z,55.00
2017-11-16T18:47:55.512Z,57.50
2017-11-16T18:50:25.300Z,59.23
2017-11-16T18:52:52.853Z,59.17
2017-11-16T18:55:20.389Z,55.27
2017-11-16T18:57:49.302Z,59.70
2017-11-16T19:00:16.837Z,58.77
2017-11-16T19:02:47.712Z,59.20
2017-11-16T19:05:15.241Z,59.50
2017-11-16T19:07:43.778Z,57.33
2017-11-16T19:10:11.345Z,64.73
2017-11-16T19:12:38.942Z,61.37
2017-11-16T19:15:07.629Z,56.23
2017-11-16T19:17:35.947Z,53.37
2017-11-16T19:20:03.689Z,60.03
2017-11-16T19:22:31.276Z,64.23
2017-11-16T19:24:58.831Z,57.20
2017-11-16T19:27:26.627Z,64.00
2017-11-16T19:29:54.187Z,62.80
2017-11-16T19:32:21.836Z,66.13
2017-11-16T19:34:50.052Z,79.40
2017-11-16T19:37:18.380Z,67.40
2017-11-16T19:39:45.908Z,64.30
2017-11-16T19:42:13.525Z,60.10
2017-11-16T19:44:42.529Z,67.13
2017-11-16T19:47:11.477Z,64.63
2017-11-16T19:49:39.253Z,57.57
2017-11-16T19:52:06.914Z,66.10
2017-11-16T19:54:35.468Z,58.40
2017-11-16T19:57:03.149Z,62.17
2017-11-16T19:59:31.744Z,60.60
2017-11-16T20:01:59.610Z,63.67
2017-11-16T20:04:27.284Z,69.10
2017-11-16T20:06:54.909Z,68.30
2017-11-16T20:09:22.403Z,66.33
2017-11-16T20:11:49.982Z,62.30
2017-11-16T20:14:17.726Z,64.37
2017-11-16T20:16:45.357Z,64.23
2017-11-16T20:19:12.930Z,64.53
2017-11-16T20:21:40.759Z,62.20
2017-11-16T20:24:08.372Z,61.03
2017-11-16T20:26:35.942Z,61.97
2017-11-16T20:29:03.492Z,65.73
2017-11-16T20:31:31.099Z,61.83
2017-11-16T20:33:59.595Z,71.07
2017-11-16T20:36:27.268Z,60.30
2017-11-16T20:42:17.357Z,59.90
2017-11-16T20:44:51.418Z,70.70
2017-11-16T20:47:24.898Z,63.93
2017-11-16T20:49:59.069Z,72.30
2017-11-16T20:52:30.706Z,66.43
2017-11-16T20:54:58.712Z,66.40
2017-11-16T20:57:27.172Z,75.40
2017-11-16T20:59:55.644Z,69.40
2017-11-16T21:02:23.158Z,70.73
2017-11-16T21:04:51.499Z,65.80
2017-11-16T21:07:19.848Z,66.47
2017-11-16T21:09:47.456Z,79.23
2017-11-16T21:12:15.833Z,69.23
2017-11-16T21:14:43.731Z,74.70
2017-11-16T21:17:11.490Z,67.53
2017-11-16T21:19:39.253Z,65.23
2017-11-16T21:22:07.848Z,66.20
2017-11-16T21:24:35.474Z,83.43
2017-11-16T21:27:03.945Z,84.57
2017-11-16T21:29:34.115Z,86.87
2017-11-16T21:32:03.980Z,80.23
2017-11-16T21:34:32.735Z,70.27
2017-11-16T21:37:00.391Z,68.10
2017-11-16T21:39:27.918Z,62.73
2017-11-16T21:41:55.444Z,60.90
2017-11-16T21:44:23.026Z,62.60
2017-11-16T21:46:52.273Z,70.53
2017-11-16T21:49:19.893Z,67.43
2017-11-16T21:51:49.642Z,65.03
2017-11-16T21:54:18.061Z,70.63
2017-11-16T21:56:45.567Z,62.77
2017-11-16T21:59:13.127Z,66.97
2017-11-16T22:01:40.791Z,68.13
2017-11-16T22:04:08.337Z,66.60
2017-11-16T22:06:37.081Z,57.70
2017-11-16T22:09:06.001Z,69.37
2017-11-16T22:11:34.353Z,64.20
2017-11-16T22:14:02.031Z,63.17
2017-11-16T22:16:29.876Z,73.47
2017-11-16T22:18:57.394Z,70.13
2017-11-16T22:21:25.239Z,68.67
2017-11-16T22:23:52.800Z,69.90
2017-11-16T22:26:20.571Z,65.97
2017-11-16T22:28:49.299Z,77.67
2017-11-16T22:31:16.808Z,72.77
2017-11-16T22:33:45.048Z,75.33
2017-11-16T22:36:12.756Z,72.63
2017-11-16T22:38:40.422Z,85.33
2017-11-16T22:41:07.994Z,83.00
2017-11-16T22:43:36.421Z,88.97
2017-11-16T22:46:04.729Z,85.43
2017-11-16T22:48:33.295Z,84.70
2017-11-16T22:51:01.601Z,85.37
2017-11-16T22:53:29.291Z,81.17
2017-11-16T22:55:56.836Z,78.93
2017-11-16T22:58:24.569Z,88.27
2017-11-16T23:00:53.026Z,84.00
2017-11-16T23:03:23.327Z,80.47
2017-11-16T23:05:52.364Z,83.87
2017-11-16T23:08:26.033Z,70.60
2017-11-16T23:10:53.774Z,79.90
2017-11-16T23:13:22.185Z,79.23
2017-11-16T23:15:50.640Z,72.63
2017-11-16T23:18:18.301Z,85.00
2017-11-16T23:20:46.766Z,66.47
2017-11-16T23:23:14.791Z,66.43
2017-11-16T23:25:42.296Z,79.87
2017-11-16T23:28:10.686Z,79.17
2017-11-16T23:30:38.787Z,69.87
2017-11-16T23:33:07.752Z,64.40
2017-11-16T23:35:35.242Z,66.27
2017-11-16T23:38:05.260Z,69.20
2017-11-16T23:40:33.591Z,68.67
2017-11-16T23:43:01.808Z,68.80
2017-11-16T23:45:29.656Z,59.77
2017-11-16T23:47:58.017Z,63.40
2017-11-16T23:50:25.824Z,63.67
2017-11-16T23:52:53.334Z,63.33
2017-11-16T23:55:21.381Z,64.90
2017-11-16T23:57:48.946Z,65.30
